sensor_id;sensor_type;location;lat;lon;timestamp;P1;durP1;ratioP1;P2;durP2;ratioP2
43670;SDS011;29267;50.906;7.248;2022-12-29T00:00:04;0.70;;;0.63;;
43670;SDS011;29267;50.906;7.248;2022-12-29T00:02:32;1.83;;;1.20;;
43670;SDS011;29267;50.906;7.248;2022-12-29T00:04:57;0.50;;;0.50;;
43670;SDS011;29267;50.906;7.248;2022-12-29T00:07:23;0.47;;;0.47;;
43670;SDS011;29267;50.906;7.248;2022-12-29T00:09:48;0.98;;;0.63;;
43670;SDS011;29267;50.906;7.248;2022-12-29T00:12:14;0.50;;;0.50;;
43670;SDS011;29267;50.906;7.248;2022-12-29T00:14:40;4.75;;;0.85;;
43670;SDS011;29267;50.906;7.248;2022-12-29T00:19:49;0.95;;;0.73;;
43670;SDS011;29267;50.906;7.248;2022-12-29T00:25:18;0.50;;;0.50;;
43670;SDS011;29267;50.906;7.248;2022-12-29T00:28:02;0.55;;;0.55;;
43670;SDS011;29267;50.906;7.248;2022-12-29T00:31:00;0.55;;;0.55;;
43670;SDS011;29267;50.906;7.248;2022-12-29T00:33:44;2.28;;;0.60;;
43670;SDS011;29267;50.906;7.248;2022-12-29T00:36:30;0.55;;;0.55;;
43670;SDS011;29267;50.906;7.248;2022-12-29T00:39:01;1.48;;;0.50;;
43670;SDS011;29267;50.906;7.248;2022-12-29T00:41:47;0.98;;;0.52;;
43670;SDS011;29267;50.906;7.248;2022-12-29T00:46:57;0.60;;;0.57;;
43670;SDS011;29267;50.906;7.248;2022-12-29T00:49:27;0.50;;;0.50;;
43670;SDS011;29267;50.906;7.248;2022-12-29T00:52:06;0.70;;;0.60;;
43670;SDS011;29267;50.906;7.248;2022-12-29T00:54:34;0.57;;;0.50;;
43670;SDS011;29267;50.906;7.248;2022-12-29T00:57:01;0.57;;;0.50;;
43670;SDS011;29267;50.906;7.248;2022-12-29T00:59:28;0.45;;;0.40;;
43670;SDS011;29267;50.906;7.248;2022-12-29T01:01:54;0.43;;;0.43;;
43670;SDS011;29267;50.906;7.248;2022-12-29T01:04:20;0.65;;;0.40;;
43670;SDS011;29267;50.906;7.248;2022-12-29T01:06:48;0.70;;;0.40;;
43670;SDS011;29267;50.906;7.248;2022-12-29T01:09:14;0.50;;;0.40;;
43670;SDS011;29267;50.906;7.248;2022-12-29T01:11:59;0.47;;;0.47;;
43670;SDS011;29267;50.906;7.248;2022-12-29T01:14:32;0.50;;;0.50;;
43670;SDS011;29267;50.906;7.248;2022-12-29T01:16:58;0.30;;;0.30;;
43670;SDS011;29267;50.906;7.248;2022-12-29T01:19:24;0.70;;;0.57;;
43670;SDS011;29267;50.906;7.248;2022-12-29T01:21:50;0.60;;;0.60;;
43670;SDS011;29267;50.906;7.248;2022-12-29T01:24:16;0.55;;;0.38;;
43670;SDS011;29267;50.906;7.248;2022-12-29T01:26:42;0.55;;;0.55;;
43670;SDS011;29267;50.906;7.248;2022-12-29T01:29:08;4.30;;;0.70;;
43670;SDS011;29267;50.906;7.248;2022-12-29T01:31:34;2.40;;;0.60;;
43670;SDS011;29267;50.906;7.248;2022-12-29T01:34:00;0.73;;;0.50;;
43670;SDS011;29267;50.906;7.248;2022-12-29T01:36:26;0.50;;;0.50;;
43670;SDS011;29267;50.906;7.248;2022-12-29T01:38:52;1.45;;;0.40;;
43670;SDS011;29267;50.906;7.248;2022-12-29T01:41:17;1.00;;;0.50;;
43670;SDS011;29267;50.906;7.248;2022-12-29T01:43:48;0.82;;;0.82;;
43670;SDS011;29267;50.906;7.248;2022-12-29T01:46:29;0.30;;;0.30;;
43670;SDS011;29267;50.906;7.248;2022-12-29T01:54:32;0.43;;;0.40;;
43670;SDS011;29267;50.906;7.248;2022-12-29T01:57:05;1.20;;;0.40;;
43670;SDS011;29267;50.906;7.248;2022-12-29T01:59:35;0.52;;;0.40;;
43670;SDS011;29267;50.906;7.248;2022-12-29T02:02:08;0.63;;;0.52;;
43670;SDS011;29267;50.906;7.248;2022-12-29T02:04:33;1.10;;;0.50;;
43670;SDS011;29267;50.906;7.248;2022-12-29T02:07:09;0.32;;;0.32;;
43670;SDS011;29267;50.906;7.248;2022-12-29T02:09:41;0.68;;;0.50;;
43670;SDS011;29267;50.906;7.248;2022-12-29T02:12:08;0.40;;;0.40;;
43670;SDS011;29267;50.906;7.248;2022-12-29T02:14:34;0.60;;;0.60;;
43670;SDS011;29267;50.906;7.248;2022-12-29T02:25:22;0.77;;;0.50;;
43670;SDS011;29267;50.906;7.248;2022-12-29T02:31:05;0.80;;;0.60;;
43670;SDS011;29267;50.906;7.248;2022-12-29T02:39:23;0.60;;;0.60;;
43670;SDS011;29267;50.906;7.248;2022-12-29T02:42:43;1.85;;;0.63;;
43670;SDS011;29267;50.906;7.248;2022-12-29T02:45:13;0.50;;;0.50;;
43670;SDS011;29267;50.906;7.248;2022-12-29T02:48:03;1.65;;;0.50;;
43670;SDS011;29267;50.906;7.248;2022-12-29T02:50:39;2.63;;;0.60;;
43670;SDS011;29267;50.906;7.248;2022-12-29T02:53:09;0.50;;;0.50;;
43670;SDS011;29267;50.906;7.248;2022-12-29T02:55:38;1.30;;;0.70;;
43670;SDS011;29267;50.906;7.248;2022-12-29T02:58:09;1.33;;;0.63;;
43670;SDS011;29267;50.906;7.248;2022-12-29T03:01:06;0.50;;;0.50;;
43670;SDS011;29267;50.906;7.248;2022-12-29T03:12:14;2.40;;;0.60;;
43670;SDS011;29267;50.906;7.248;2022-12-29T03:20:20;0.70;;;0.70;;
43670;SDS011;29267;50.906;7.248;2022-12-29T03:22:53;0.57;;;0.57;;
43670;SDS011;29267;50.906;7.248;2022-12-29T03:25:26;0.50;;;0.50;;
43670;SDS011;29267;50.906;7.248;2022-12-29T03:27:56;4.78;;;0.73;;
43670;SDS011;29267;50.906;7.248;2022-12-29T03:30:25;2.53;;;0.47;;
43670;SDS011;29267;50.906;7.248;2022-12-29T03:32:55;0.68;;;0.60;;
43670;SDS011;29267;50.906;7.248;2022-12-29T03:35:24;1.85;;;0.95;;
43670;SDS011;29267;50.906;7.248;2022-12-29T03:37:53;2.10;;;0.88;;
43670;SDS011;29267;50.906;7.248;2022-12-29T03:40:24;0.95;;;0.70;;
43670;SDS011;29267;50.906;7.248;2022-12-29T03:42:52;0.50;;;0.45;;
43670;SDS011;29267;50.906;7.248;2022-12-29T03:45:19;0.98;;;0.57;;
43670;SDS011;29267;50.906;7.248;2022-12-29T03:47:45;1.23;;;1.13;;
43670;SDS011;29267;50.906;7.248;2022-12-29T03:50:11;0.80;;;0.65;;
43670;SDS011;29267;50.906;7.248;2022-12-29T03:52:38;1.65;;;0.55;;
43670;SDS011;29267;50.906;7.248;2022-12-29T03:55:04;0.82;;;0.70;;
43670;SDS011;29267;50.906;7.248;2022-12-29T03:57:29;0.75;;;0.50;;
43670;SDS011;29267;50.906;7.248;2022-12-29T03:59:55;0.45;;;0.45;;
43670;SDS011;29267;50.906;7.248;2022-12-29T04:02:21;0.65;;;0.45;;
43670;SDS011;29267;50.906;7.248;2022-12-29T04:04:47;1.00;;;0.63;;
43670;SDS011;29267;50.906;7.248;2022-12-29T04:07:12;0.50;;;0.50;;
43670;SDS011;29267;50.906;7.248;2022-12-29T04:09:38;0.75;;;0.65;;
43670;SDS011;29267;50.906;7.248;2022-12-29T04:12:03;2.00;;;0.60;;
43670;SDS011;29267;50.906;7.248;2022-12-29T04:14:29;1.10;;;0.77;;
43670;SDS011;29267;50.906;7.248;2022-12-29T04:16:55;2.92;;;1.08;;
43670;SDS011;29267;50.906;7.248;2022-12-29T04:19:20;0.90;;;0.80;;
43670;SDS011;29267;50.906;7.248;2022-12-29T04:21:46;0.68;;;0.68;;
43670;SDS011;29267;50.906;7.248;2022-12-29T04:24:11;0.70;;;0.70;;
43670;SDS011;29267;50.906;7.248;2022-12-29T04:26:38;0.70;;;0.70;;
43670;SDS011;29267;50.906;7.248;2022-12-29T04:29:03;0.50;;;0.50;;
43670;SDS011;29267;50.906;7.248;2022-12-29T04:31:29;0.80;;;0.80;;
43670;SDS011;29267;50.906;7.248;2022-12-29T04:33:55;0.70;;;0.70;;
43670;SDS011;29267;50.906;7.248;2022-12-29T04:36:22;4.00;;;0.68;;
43670;SDS011;29267;50.906;7.248;2022-12-29T04:38:48;1.05;;;0.50;;
43670;SDS011;29267;50.906;7.248;2022-12-29T04:41:13;0.60;;;0.60;;
43670;SDS011;29267;50.906;7.248;2022-12-29T04:43:39;1.13;;;0.65;;
43670;SDS011;29267;50.906;7.248;2022-12-29T04:46:05;0.55;;;0.50;;
43670;SDS011;29267;50.906;7.248;2022-12-29T04:48:30;1.27;;;0.50;;
43670;SDS011;29267;50.906;7.248;2022-12-29T04:50:56;0.90;;;0.90;;
43670;SDS011;29267;50.906;7.248;2022-12-29T04:53:21;0.90;;;0.50;;
43670;SDS011;29267;50.906;7.248;2022-12-29T04:55:50;1.27;;;0.38;;
43670;SDS011;29267;50.906;7.248;2022-12-29T04:58:17;2.38;;;0.73;;
43670;SDS011;29267;50.906;7.248;2022-12-29T05:00:43;0.52;;;0.52;;
43670;SDS011;29267;50.906;7.248;2022-12-29T05:03:08;1.17;;;0.70;;
43670;SDS011;29267;50.906;7.248;2022-12-29T05:05:34;0.80;;;0.52;;
43670;SDS011;29267;50.906;7.248;2022-12-29T05:07:59;1.50;;;0.70;;
43670;SDS011;29267;50.906;7.248;2022-12-29T05:10:25;0.60;;;0.60;;
43670;SDS011;29267;50.906;7.248;2022-12-29T05:12:51;0.85;;;0.85;;
43670;SDS011;29267;50.906;7.248;2022-12-29T05:15:16;3.13;;;0.60;;
43670;SDS011;29267;50.906;7.248;2022-12-29T05:17:42;0.70;;;0.70;;
43670;SDS011;29267;50.906;7.248;2022-12-29T05:20:08;0.60;;;0.50;;
43670;SDS011;29267;50.906;7.248;2022-12-29T05:22:34;2.03;;;0.90;;
43670;SDS011;29267;50.906;7.248;2022-12-29T05:24:59;0.70;;;0.60;;
43670;SDS011;29267;50.906;7.248;2022-12-29T05:27:25;0.70;;;0.50;;
43670;SDS011;29267;50.906;7.248;2022-12-29T05:29:51;0.50;;;0.50;;
43670;SDS011;29267;50.906;7.248;2022-12-29T05:32:16;0.95;;;0.77;;
43670;SDS011;29267;50.906;7.248;2022-12-29T05:34:42;1.13;;;0.60;;
43670;SDS011;29267;50.906;7.248;2022-12-29T05:37:07;0.50;;;0.45;;
43670;SDS011;29267;50.906;7.248;2022-12-29T05:39:33;2.15;;;0.77;;
43670;SDS011;29267;50.906;7.248;2022-12-29T05:41:58;0.57;;;0.40;;
43670;SDS011;29267;50.906;7.248;2022-12-29T05:44:24;1.50;;;0.50;;
43670;SDS011;29267;50.906;7.248;2022-12-29T05:46:49;1.10;;;0.70;;
43670;SDS011;29267;50.906;7.248;2022-12-29T05:49:15;0.50;;;0.50;;
43670;SDS011;29267;50.906;7.248;2022-12-29T05:51:41;0.50;;;0.50;;
43670;SDS011;29267;50.906;7.248;2022-12-29T05:54:07;0.82;;;0.68;;
43670;SDS011;29267;50.906;7.248;2022-12-29T05:56:32;0.80;;;0.50;;
43670;SDS011;29267;50.906;7.248;2022-12-29T05:58:58;1.60;;;0.52;;
43670;SDS011;29267;50.906;7.248;2022-12-29T06:01:23;1.67;;;0.50;;
43670;SDS011;29267;50.906;7.248;2022-12-29T06:03:49;0.40;;;0.40;;
43670;SDS011;29267;50.906;7.248;2022-12-29T06:06:15;0.43;;;0.43;;
43670;SDS011;29267;50.906;7.248;2022-12-29T06:08:40;0.43;;;0.40;;
43670;SDS011;29267;50.906;7.248;2022-12-29T06:11:06;1.50;;;0.70;;
43670;SDS011;29267;50.906;7.248;2022-12-29T06:13:32;0.40;;;0.40;;
43670;SDS011;29267;50.906;7.248;2022-12-29T06:15:57;0.60;;;0.60;;
43670;SDS011;29267;50.906;7.248;2022-12-29T06:18:23;0.80;;;0.77;;
43670;SDS011;29267;50.906;7.248;2022-12-29T06:20:48;1.10;;;0.65;;
43670;SDS011;29267;50.906;7.248;2022-12-29T06:23:14;0.60;;;0.60;;
43670;SDS011;29267;50.906;7.248;2022-12-29T06:25:41;2.58;;;0.70;;
43670;SDS011;29267;50.906;7.248;2022-12-29T06:28:06;1.08;;;0.60;;
43670;SDS011;29267;50.906;7.248;2022-12-29T06:30:32;0.38;;;0.35;;
43670;SDS011;29267;50.906;7.248;2022-12-29T06:32:58;0.65;;;0.43;;
43670;SDS011;29267;50.906;7.248;2022-12-29T06:35:24;0.68;;;0.50;;
43670;SDS011;29267;50.906;7.248;2022-12-29T06:37:50;0.85;;;0.60;;
43670;SDS011;29267;50.906;7.248;2022-12-29T06:40:16;1.60;;;0.70;;
43670;SDS011;29267;50.906;7.248;2022-12-29T06:42:41;1.00;;;0.75;;
43670;SDS011;29267;50.906;7.248;2022-12-29T06:45:07;0.57;;;0.50;;
43670;SDS011;29267;50.906;7.248;2022-12-29T06:47:34;0.77;;;0.68;;
43670;SDS011;29267;50.906;7.248;2022-12-29T06:50:00;7.78;;;4.25;;
43670;SDS011;29267;50.906;7.248;2022-12-29T06:52:26;95.55;;;46.83;;
43670;SDS011;29267;50.906;7.248;2022-12-29T06:54:53;99.35;;;47.25;;
43670;SDS011;29267;50.906;7.248;2022-12-29T06:57:19;69.03;;;36.72;;
43670;SDS011;29267;50.906;7.248;2022-12-29T06:59:45;11.05;;;6.80;;
43670;SDS011;29267;50.906;7.248;2022-12-29T07:02:10;3.05;;;1.58;;
43670;SDS011;29267;50.906;7.248;2022-12-29T07:04:36;7.88;;;1.25;;
43670;SDS011;29267;50.906;7.248;2022-12-29T07:07:02;1.67;;;1.05;;
43670;SDS011;29267;50.906;7.248;2022-12-29T07:09:28;4.55;;;2.47;;
43670;SDS011;29267;50.906;7.248;2022-12-29T07:11:54;2.92;;;0.82;;
43670;SDS011;29267;50.906;7.248;2022-12-29T07:14:19;3.03;;;0.95;;
43670;SDS011;29267;50.906;7.248;2022-12-29T07:16:45;2.10;;;0.98;;
43670;SDS011;29267;50.906;7.248;2022-12-29T07:19:10;0.77;;;0.77;;
43670;SDS011;29267;50.906;7.248;2022-12-29T07:21:36;5.28;;;1.40;;
43670;SDS011;29267;50.906;7.248;2022-12-29T07:24:02;0.98;;;0.80;;
43670;SDS011;29267;50.906;7.248;2022-12-29T07:26:27;1.17;;;0.40;;
43670;SDS011;29267;50.906;7.248;2022-12-29T07:28:53;0.90;;;0.50;;
43670;SDS011;29267;50.906;7.248;2022-12-29T07:31:21;0.82;;;0.60;;
43670;SDS011;29267;50.906;7.248;2022-12-29T07:33:48;0.40;;;0.40;;
43670;SDS011;29267;50.906;7.248;2022-12-29T07:36:14;0.55;;;0.40;;
43670;SDS011;29267;50.906;7.248;2022-12-29T07:38:40;1.10;;;0.40;;
43670;SDS011;29267;50.906;7.248;2022-12-29T07:41:06;1.75;;;0.50;;
43670;SDS011;29267;50.906;7.248;2022-12-29T07:43:32;0.50;;;0.50;;
43670;SDS011;29267;50.906;7.248;2022-12-29T07:45:58;3.03;;;0.50;;
43670;SDS011;29267;50.906;7.248;2022-12-29T07:48:23;2.40;;;0.43;;
43670;SDS011;29267;50.906;7.248;2022-12-29T07:50:49;3.30;;;1.10;;
43670;SDS011;29267;50.906;7.248;2022-12-29T07:53:15;31.00;;;22.98;;
43670;SDS011;29267;50.906;7.248;2022-12-29T07:55:41;3.15;;;2.85;;
43670;SDS011;29267;50.906;7.248;2022-12-29T07:58:06;6.22;;;2.83;;
43670;SDS011;29267;50.906;7.248;2022-12-29T08:00:32;7.03;;;4.07;;
43670;SDS011;29267;50.906;7.248;2022-12-29T08:02:58;12.80;;;7.03;;
43670;SDS011;29267;50.906;7.248;2022-12-29T08:05:24;10.15;;;4.35;;
43670;SDS011;29267;50.906;7.248;2022-12-29T08:07:50;7.13;;;3.42;;
43670;SDS011;29267;50.906;7.248;2022-12-29T08:10:15;3.92;;;1.67;;
43670;SDS011;29267;50.906;7.248;2022-12-29T08:12:41;6.53;;;2.83;;
43670;SDS011;29267;50.906;7.248;2022-12-29T08:15:08;6.07;;;3.00;;
43670;SDS011;29267;50.906;7.248;2022-12-29T08:17:35;10.85;;;4.43;;
43670;SDS011;29267;50.906;7.248;2022-12-29T08:20:00;6.75;;;3.90;;
43670;SDS011;29267;50.906;7.248;2022-12-29T08:22:26;12.20;;;4.00;;
43670;SDS011;29267;50.906;7.248;2022-12-29T08:24:52;6.38;;;3.05;;
43670;SDS011;29267;50.906;7.248;2022-12-29T08:27:17;4.13;;;1.92;;
43670;SDS011;29267;50.906;7.248;2022-12-29T08:29:43;5.45;;;2.65;;
43670;SDS011;29267;50.906;7.248;2022-12-29T08:32:09;5.30;;;2.58;;
43670;SDS011;29267;50.906;7.248;2022-12-29T08:34:34;1.17;;;0.98;;
43670;SDS011;29267;50.906;7.248;2022-12-29T08:37:00;1.23;;;1.05;;
43670;SDS011;29267;50.906;7.248;2022-12-29T08:39:26;1.33;;;0.43;;
43670;SDS011;29267;50.906;7.248;2022-12-29T08:41:52;0.63;;;0.50;;
43670;SDS011;29267;50.906;7.248;2022-12-29T08:44:17;2.10;;;0.85;;
43670;SDS011;29267;50.906;7.248;2022-12-29T08:46:43;2.30;;;1.58;;
43670;SDS011;29267;50.906;7.248;2022-12-29T08:49:08;3.95;;;0.90;;
43670;SDS011;29267;50.906;7.248;2022-12-29T08:51:34;2.08;;;0.80;;
43670;SDS011;29267;50.906;7.248;2022-12-29T08:53:59;3.17;;;1.60;;
43670;SDS011;29267;50.906;7.248;2022-12-29T08:56:25;3.80;;;1.10;;
43670;SDS011;29267;50.906;7.248;2022-12-29T08:58:51;4.57;;;1.10;;
43670;SDS011;29267;50.906;7.248;2022-12-29T09:01:17;3.50;;;1.15;;
43670;SDS011;29267;50.906;7.248;2022-12-29T09:03:43;3.88;;;0.80;;
43670;SDS011;29267;50.906;7.248;2022-12-29T09:06:09;3.28;;;0.70;;
43670;SDS011;29267;50.906;7.248;2022-12-29T09:08:34;4.63;;;0.82;;
43670;SDS011;29267;50.906;7.248;2022-12-29T09:11:07;6.05;;;0.80;;
43670;SDS011;29267;50.906;7.248;2022-12-29T09:13:34;1.77;;;0.75;;
43670;SDS011;29267;50.906;7.248;2022-12-29T09:16:00;1.17;;;0.50;;
43670;SDS011;29267;50.906;7.248;2022-12-29T09:18:26;3.38;;;0.80;;
43670;SDS011;29267;50.906;7.248;2022-12-29T09:20:57;3.15;;;1.00;;
43670;SDS011;29267;50.906;7.248;2022-12-29T09:23:25;3.30;;;1.08;;
43670;SDS011;29267;50.906;7.248;2022-12-29T09:25:51;5.72;;;1.13;;
43670;SDS011;29267;50.906;7.248;2022-12-29T09:28:17;1.00;;;0.70;;
43670;SDS011;29267;50.906;7.248;2022-12-29T09:30:43;2.95;;;0.77;;
43670;SDS011;29267;50.906;7.248;2022-12-29T09:33:08;5.38;;;1.38;;
43670;SDS011;29267;50.906;7.248;2022-12-29T09:35:34;3.97;;;1.27;;
43670;SDS011;29267;50.906;7.248;2022-12-29T09:38:00;2.55;;;0.85;;
43670;SDS011;29267;50.906;7.248;2022-12-29T09:40:27;10.43;;;1.10;;
43670;SDS011;29267;50.906;7.248;2022-12-29T09:43:14;3.55;;;0.80;;
43670;SDS011;29267;50.906;7.248;2022-12-29T09:45:55;0.57;;;0.55;;
43670;SDS011;29267;50.906;7.248;2022-12-29T09:48:31;2.85;;;0.85;;
43670;SDS011;29267;50.906;7.248;2022-12-29T09:51:01;3.22;;;0.93;;
43670;SDS011;29267;50.906;7.248;2022-12-29T09:53:35;2.63;;;1.00;;
43670;SDS011;29267;50.906;7.248;2022-12-29T09:56:13;7.72;;;1.20;;
43670;SDS011;29267;50.906;7.248;2022-12-29T10:03:55;3.22;;;0.98;;
43670;SDS011;29267;50.906;7.248;2022-12-29T10:06:26;3.30;;;1.65;;
43670;SDS011;29267;50.906;7.248;2022-12-29T10:09:36;5.18;;;1.00;;
43670;SDS011;29267;50.906;7.248;2022-12-29T10:15:09;4.10;;;1.90;;
43670;SDS011;29267;50.906;7.248;2022-12-29T10:18:01;2.10;;;1.17;;
43670;SDS011;29267;50.906;7.248;2022-12-29T10:20:53;1.70;;;1.02;;
43670;SDS011;29267;50.906;7.248;2022-12-29T10:25:57;4.32;;;1.10;;
43670;SDS011;29267;50.906;7.248;2022-12-29T10:31:17;8.07;;;1.25;;
43670;SDS011;29267;50.906;7.248;2022-12-29T10:33:48;7.20;;;1.50;;
43670;SDS011;29267;50.906;7.248;2022-12-29T10:36:20;19.13;;;4.65;;
43670;SDS011;29267;50.906;7.248;2022-12-29T10:39:02;5.40;;;2.28;;
43670;SDS011;29267;50.906;7.248;2022-12-29T10:41:49;8.70;;;3.08;;
43670;SDS011;29267;50.906;7.248;2022-12-29T10:44:21;11.00;;;3.50;;
43670;SDS011;29267;50.906;7.248;2022-12-29T10:46:57;13.85;;;4.72;;
43670;SDS011;29267;50.906;7.248;2022-12-29T10:49:26;7.07;;;2.38;;
43670;SDS011;29267;50.906;7.248;2022-12-29T10:51:54;9.68;;;3.30;;
43670;SDS011;29267;50.906;7.248;2022-12-29T10:54:27;11.63;;;3.50;;
43670;SDS011;29267;50.906;7.248;2022-12-29T10:57:03;10.40;;;3.72;;
43670;SDS011;29267;50.906;7.248;2022-12-29T10:59:46;13.88;;;5.07;;
43670;SDS011;29267;50.906;7.248;2022-12-29T11:04:49;8.05;;;2.97;;
43670;SDS011;29267;50.906;7.248;2022-12-29T11:09:47;23.33;;;6.53;;
43670;SDS011;29267;50.906;7.248;2022-12-29T11:12:26;12.77;;;4.30;;
43670;SDS011;29267;50.906;7.248;2022-12-29T11:15:01;17.38;;;6.82;;
43670;SDS011;29267;50.906;7.248;2022-12-29T11:17:27;11.20;;;3.83;;
43670;SDS011;29267;50.906;7.248;2022-12-29T11:19:53;7.22;;;2.92;;
43670;SDS011;29267;50.906;7.248;2022-12-29T11:24:52;9.75;;;2.45;;
43670;SDS011;29267;50.906;7.248;2022-12-29T11:27:22;7.40;;;2.60;;
43670;SDS011;29267;50.906;7.248;2022-12-29T11:29:50;15.60;;;4.75;;
43670;SDS011;29267;50.906;7.248;2022-12-29T11:32:18;16.05;;;6.70;;
43670;SDS011;29267;50.906;7.248;2022-12-29T11:34:48;20.63;;;6.50;;
43670;SDS011;29267;50.906;7.248;2022-12-29T11:37:30;17.10;;;7.60;;
43670;SDS011;29267;50.906;7.248;2022-12-29T11:40:04;13.32;;;5.47;;
43670;SDS011;29267;50.906;7.248;2022-12-29T11:42:51;7.35;;;2.88;;
43670;SDS011;29267;50.906;7.248;2022-12-29T11:45:25;9.48;;;2.40;;
43670;SDS011;29267;50.906;7.248;2022-12-29T11:48:01;8.40;;;2.00;;
43670;SDS011;29267;50.906;7.248;2022-12-29T11:50:33;24.92;;;7.75;;
43670;SDS011;29267;50.906;7.248;2022-12-29T11:53:17;20.70;;;5.60;;
43670;SDS011;29267;50.906;7.248;2022-12-29T11:55:52;6.57;;;2.05;;
43670;SDS011;29267;50.906;7.248;2022-12-29T11:58:21;9.45;;;2.38;;
43670;SDS011;29267;50.906;7.248;2022-12-29T12:00:59;7.40;;;2.03;;
43670;SDS011;29267;50.906;7.248;2022-12-29T12:03:52;7.75;;;2.70;;
43670;SDS011;29267;50.906;7.248;2022-12-29T12:06:25;5.43;;;2.13;;
43670;SDS011;29267;50.906;7.248;2022-12-29T12:08:54;9.32;;;3.38;;
43670;SDS011;29267;50.906;7.248;2022-12-29T12:11:41;7.95;;;1.67;;
43670;SDS011;29267;50.906;7.248;2022-12-29T12:14:30;7.68;;;1.73;;
43670;SDS011;29267;50.906;7.248;2022-12-29T12:17:11;3.83;;;1.48;;
43670;SDS011;29267;50.906;7.248;2022-12-29T12:19:45;5.10;;;1.10;;
43670;SDS011;29267;50.906;7.248;2022-12-29T12:22:15;8.60;;;1.75;;
43670;SDS011;29267;50.906;7.248;2022-12-29T12:30:17;10.80;;;2.35;;
43670;SDS011;29267;50.906;7.248;2022-12-29T12:32:46;11.18;;;2.85;;
43670;SDS011;29267;50.906;7.248;2022-12-29T12:38:04;10.80;;;2.10;;
43670;SDS011;29267;50.906;7.248;2022-12-29T12:52:20;13.38;;;2.75;;
43670;SDS011;29267;50.906;7.248;2022-12-29T12:55:14;12.02;;;2.53;;
43670;SDS011;29267;50.906;7.248;2022-12-29T13:00:22;13.00;;;3.40;;
43670;SDS011;29267;50.906;7.248;2022-12-29T13:11:16;6.45;;;1.75;;
43670;SDS011;29267;50.906;7.248;2022-12-29T13:16:27;12.18;;;2.92;;
43670;SDS011;29267;50.906;7.248;2022-12-29T13:30:01;8.15;;;1.58;;
43670;SDS011;29267;50.906;7.248;2022-12-29T13:32:44;11.15;;;2.60;;
43670;SDS011;29267;50.906;7.248;2022-12-29T13:38:22;6.32;;;2.38;;
43670;SDS011;29267;50.906;7.248;2022-12-29T13:40:56;3.42;;;1.27;;
43670;SDS011;29267;50.906;7.248;2022-12-29T13:43:27;11.18;;;1.55;;
43670;SDS011;29267;50.906;7.248;2022-12-29T13:46:06;4.82;;;1.88;;
43670;SDS011;29267;50.906;7.248;2022-12-29T13:48:37;3.20;;;0.95;;
43670;SDS011;29267;50.906;7.248;2022-12-29T13:51:08;2.95;;;0.77;;
43670;SDS011;29267;50.906;7.248;2022-12-29T13:58:41;9.85;;;1.80;;
43670;SDS011;29267;50.906;7.248;2022-12-29T14:01:18;6.07;;;2.00;;
43670;SDS011;29267;50.906;7.248;2022-12-29T14:03:54;7.28;;;1.20;;
43670;SDS011;29267;50.906;7.248;2022-12-29T14:06:28;4.88;;;1.70;;
43670;SDS011;29267;50.906;7.248;2022-12-29T14:09:03;4.60;;;1.40;;
43670;SDS011;29267;50.906;7.248;2022-12-29T14:13:57;8.32;;;2.25;;
43670;SDS011;29267;50.906;7.248;2022-12-29T14:16:27;4.18;;;1.48;;
43670;SDS011;29267;50.906;7.248;2022-12-29T14:18:56;5.38;;;2.50;;
43670;SDS011;29267;50.906;7.248;2022-12-29T14:21:41;7.97;;;1.80;;
43670;SDS011;29267;50.906;7.248;2022-12-29T14:34:49;5.55;;;1.98;;
43670;SDS011;29267;50.906;7.248;2022-12-29T14:40:05;8.18;;;1.17;;
43670;SDS011;29267;50.906;7.248;2022-12-29T14:42:39;6.07;;;1.40;;
43670;SDS011;29267;50.906;7.248;2022-12-29T14:45:08;5.97;;;1.30;;
43670;SDS011;29267;50.906;7.248;2022-12-29T14:47:52;3.95;;;1.30;;
43670;SDS011;29267;50.906;7.248;2022-12-29T14:55:32;17.25;;;5.43;;
43670;SDS011;29267;50.906;7.248;2022-12-29T14:58:05;2.53;;;1.30;;
43670;SDS011;29267;50.906;7.248;2022-12-29T15:00:39;6.90;;;2.22;;
43670;SDS011;29267;50.906;7.248;2022-12-29T15:03:06;4.95;;;1.45;;
43670;SDS011;29267;50.906;7.248;2022-12-29T15:08:20;8.05;;;2.45;;
43670;SDS011;29267;50.906;7.248;2022-12-29T15:10:53;4.85;;;1.55;;
43670;SDS011;29267;50.906;7.248;2022-12-29T15:13:24;11.63;;;2.60;;
43670;SDS011;29267;50.906;7.248;2022-12-29T15:15:58;27.92;;;8.35;;
43670;SDS011;29267;50.906;7.248;2022-12-29T15:21:01;17.98;;;6.70;;
43670;SDS011;29267;50.906;7.248;2022-12-29T15:23:29;5.90;;;2.63;;
43670;SDS011;29267;50.906;7.248;2022-12-29T15:26:00;11.68;;;3.78;;
43670;SDS011;29267;50.906;7.248;2022-12-29T15:28:43;28.73;;;12.07;;
43670;SDS011;29267;50.906;7.248;2022-12-29T15:31:11;10.38;;;3.17;;
43670;SDS011;29267;50.906;7.248;2022-12-29T15:33:40;9.43;;;3.47;;
43670;SDS011;29267;50.906;7.248;2022-12-29T15:36:11;11.00;;;4.10;;
43670;SDS011;29267;50.906;7.248;2022-12-29T15:38:42;12.73;;;5.03;;
43670;SDS011;29267;50.906;7.248;2022-12-29T15:46:39;23.77;;;7.65;;
43670;SDS011;29267;50.906;7.248;2022-12-29T15:49:06;33.38;;;13.05;;
43670;SDS011;29267;50.906;7.248;2022-12-29T15:51:35;27.48;;;10.18;;
43670;SDS011;29267;50.906;7.248;2022-12-29T15:54:03;17.30;;;6.95;;
43670;SDS011;29267;50.906;7.248;2022-12-29T15:56:30;15.00;;;3.95;;
43670;SDS011;29267;50.906;7.248;2022-12-29T15:58:57;10.48;;;3.78;;
43670;SDS011;29267;50.906;7.248;2022-12-29T16:03:49;14.20;;;4.85;;
43670;SDS011;29267;50.906;7.248;2022-12-29T16:09:02;64.30;;;17.75;;
43670;SDS011;29267;50.906;7.248;2022-12-29T16:13:56;10.35;;;2.92;;
43670;SDS011;29267;50.906;7.248;2022-12-29T16:16:24;13.93;;;2.33;;
43670;SDS011;29267;50.906;7.248;2022-12-29T16:18:55;12.68;;;4.32;;
43670;SDS011;29267;50.906;7.248;2022-12-29T16:21:23;16.60;;;4.15;;
43670;SDS011;29267;50.906;7.248;2022-12-29T16:24:02;17.58;;;4.78;;
43670;SDS011;29267;50.906;7.248;2022-12-29T16:26:32;15.98;;;6.72;;
43670;SDS011;29267;50.906;7.248;2022-12-29T16:28:58;15.88;;;6.38;;
43670;SDS011;29267;50.906;7.248;2022-12-29T16:34:19;20.35;;;6.47;;
43670;SDS011;29267;50.906;7.248;2022-12-29T16:36:56;20.17;;;7.25;;
43670;SDS011;29267;50.906;7.248;2022-12-29T16:39:35;17.67;;;6.72;;
43670;SDS011;29267;50.906;7.248;2022-12-29T16:48:10;7.25;;;3.35;;
43670;SDS011;29267;50.906;7.248;2022-12-29T16:50:47;7.90;;;3.03;;
43670;SDS011;29267;50.906;7.248;2022-12-29T16:53:31;9.95;;;2.45;;
43670;SDS011;29267;50.906;7.248;2022-12-29T16:56:08;13.18;;;4.28;;
43670;SDS011;29267;50.906;7.248;2022-12-29T16:58:45;8.45;;;2.95;;
43670;SDS011;29267;50.906;7.248;2022-12-29T17:01:12;14.88;;;4.68;;
43670;SDS011;29267;50.906;7.248;2022-12-29T17:03:45;4.97;;;1.77;;
43670;SDS011;29267;50.906;7.248;2022-12-29T17:06:19;6.07;;;2.45;;
43670;SDS011;29267;50.906;7.248;2022-12-29T17:08:46;12.38;;;3.35;;
43670;SDS011;29267;50.906;7.248;2022-12-29T17:11:19;8.18;;;2.60;;
43670;SDS011;29267;50.906;7.248;2022-12-29T17:14:18;7.38;;;2.97;;
43670;SDS011;29267;50.906;7.248;2022-12-29T17:16:47;14.48;;;4.78;;
43670;SDS011;29267;50.906;7.248;2022-12-29T17:19:20;12.75;;;4.78;;
43670;SDS011;29267;50.906;7.248;2022-12-29T17:21:54;16.13;;;4.40;;
43670;SDS011;29267;50.906;7.248;2022-12-29T17:24:19;11.55;;;3.03;;
43670;SDS011;29267;50.906;7.248;2022-12-29T17:26:46;12.48;;;3.63;;
43670;SDS011;29267;50.906;7.248;2022-12-29T17:29:57;14.77;;;3.83;;
43670;SDS011;29267;50.906;7.248;2022-12-29T17:32:05;9.70;;;2.95;;
43670;SDS011;29267;50.906;7.248;2022-12-29T17:34:36;12.00;;;4.00;;
43670;SDS011;29267;50.906;7.248;2022-12-29T17:37:02;9.35;;;2.42;;
43670;SDS011;29267;50.906;7.248;2022-12-29T17:39:30;11.93;;;4.28;;
43670;SDS011;29267;50.906;7.248;2022-12-29T17:41:55;14.43;;;4.00;;
43670;SDS011;29267;50.906;7.248;2022-12-29T17:44:21;28.95;;;7.80;;
43670;SDS011;29267;50.906;7.248;2022-12-29T17:46:48;64.63;;;15.70;;
43670;SDS011;29267;50.906;7.248;2022-12-29T17:49:15;35.95;;;9.73;;